createdAt,value
2022-08-18T00:00:04.510Z,3.20
2022-08-18T00:02:33.471Z,3.60
2022-08-18T00:05:02.756Z,3.45
2022-08-18T00:07:35.565Z,3.83
2022-08-18T00:10:03.056Z,3.10
2022-08-18T00:12:37.401Z,3.67
2022-08-18T00:15:06.566Z,3.50
2022-08-18T00:17:33.927Z,3.30
2022-08-18T00:20:00.999Z,3.10
2022-08-18T00:22:30.349Z,3.30
2022-08-18T00:24:58.320Z,3.38
2022-08-18T00:27:31.396Z,3.38
2022-08-18T00:30:04.032Z,3.55
2022-08-18T00:32:37.447Z,3.38
2022-08-18T00:35:29.090Z,3.28
2022-08-18T00:37:58.614Z,3.30
2022-08-18T00:40:38.697Z,3.60
2022-08-18T00:43:07.889Z,3.28
2022-08-18T00:45:40.460Z,3.22
2022-08-18T00:48:11.281Z,3.40
2022-08-18T00:50:44.455Z,3.30
2022-08-18T00:53:24.800Z,3.20
2022-08-18T00:55:54.012Z,2.97
2022-08-18T00:58:28.354Z,3.25
2022-08-18T01:00:55.359Z,3.17
2022-08-18T01:03:24.617Z,3.13
2022-08-18T01:05:58.837Z,2.78
2022-08-18T01:10:56.223Z,2.95
2022-08-18T01:13:27.706Z,3.25
2022-08-18T01:15:54.360Z,3.03
2022-08-18T01:18:39.700Z,2.80
2022-08-18T01:21:27.530Z,3.00
2022-08-18T01:23:54.894Z,3.33
2022-08-18T01:26:25.739Z,2.83
2022-08-18T01:28:54.025Z,3.20
2022-08-18T01:31:38.135Z,3.88
2022-08-18T01:34:13.624Z,3.05
2022-08-18T01:36:42.422Z,2.78
2022-08-18T01:39:11.747Z,3.50
2022-08-18T01:41:39.373Z,3.70
2022-08-18T01:44:11.781Z,3.67
2022-08-18T01:46:41.571Z,3.65
2022-08-18T01:49:09.250Z,4.00
2022-08-18T01:51:40.208Z,3.33
2022-08-18T01:54:15.094Z,3.13
2022-08-18T01:56:42.850Z,3.45
2022-08-18T01:59:13.580Z,3.33
2022-08-18T02:01:50.541Z,3.53
2022-08-18T02:04:35.531Z,4.13
2022-08-18T02:07:07.315Z,4.10
2022-08-18T02:09:34.565Z,4.07
2022-08-18T02:12:01.295Z,3.90
2022-08-18T02:14:27.823Z,4.07
2022-08-18T02:17:01.282Z,4.30
2022-08-18T02:19:33.224Z,4.30
2022-08-18T02:22:00.349Z,4.90
2022-08-18T02:24:26.875Z,4.78
2022-08-18T02:26:53.430Z,4.47
2022-08-18T02:29:19.888Z,4.95
2022-08-18T02:31:46.362Z,4.93
2022-08-18T02:34:15.290Z,5.20
2022-08-18T02:36:44.326Z,4.88
2022-08-18T02:39:13.373Z,5.60
2022-08-18T02:41:39.960Z,5.40
2022-08-18T02:44:07.831Z,5.25
2022-08-18T02:46:37.648Z,4.93
2022-08-18T02:49:08.085Z,5.28
2022-08-18T02:51:37.360Z,5.43
2022-08-18T02:54:09.137Z,5.50
2022-08-18T02:56:41.377Z,4.97
2022-08-18T02:59:15.810Z,5.20
2022-08-18T03:01:48.187Z,5.10
2022-08-18T03:04:21.154Z,5.40
2022-08-18T03:06:52.186Z,5.45
2022-08-18T03:09:18.848Z,5.18
2022-08-18T03:11:45.925Z,4.50
2022-08-18T03:14:16.222Z,5.20
2022-08-18T03:16:54.003Z,5.00
2022-08-18T03:19:23.149Z,4.88
2022-08-18T03:21:49.728Z,5.07
2022-08-18T03:24:22.882Z,4.88
2022-08-18T03:26:51.312Z,4.90
2022-08-18T03:29:18.041Z,5.10
2022-08-18T03:31:45.454Z,5.18
2022-08-18T03:34:13.046Z,5.15
2022-08-18T03:36:40.382Z,4.85
2022-08-18T03:39:10.213Z,5.20
2022-08-18T03:42:00.030Z,5.03
2022-08-18T03:44:32.908Z,5.05
2022-08-18T03:47:04.924Z,5.18
2022-08-18T03:49:33.468Z,5.03
2022-08-18T03:52:00.878Z,5.28
2022-08-18T03:54:32.199Z,5.13
2022-08-18T03:57:00.194Z,5.05
2022-08-18T03:59:31.719Z,5.68
2022-08-18T04:02:00.860Z,5.00
2022-08-18T04:04:28.615Z,5.07
2022-08-18T04:07:05.703Z,5.35
2022-08-18T04:09:33.536Z,5.70
2022-08-18T04:12:16.639Z,5.43
2022-08-18T04:14:47.933Z,5.78
2022-08-18T04:17:14.939Z,5.90
2022-08-18T04:19:42.025Z,5.40
2022-08-18T04:22:08.855Z,5.40
2022-08-18T04:24:37.979Z,5.50
2022-08-18T04:27:07.630Z,5.80
2022-08-18T04:29:34.141Z,5.35
2022-08-18T04:32:04.950Z,5.72
2022-08-18T04:34:33.228Z,5.57
2022-08-18T04:37:00.363Z,5.30
2022-08-18T04:39:26.951Z,5.88
2022-08-18T04:41:59.226Z,5.43
2022-08-18T04:44:38.284Z,5.22
2022-08-18T04:47:09.128Z,5.70
2022-08-18T04:49:36.662Z,5.55
2022-08-18T04:52:40.159Z,5.72
2022-08-18T04:55:08.677Z,6.07
2022-08-18T04:57:37.712Z,5.70
2022-08-18T05:00:06.737Z,5.75
2022-08-18T05:02:35.743Z,5.70
2022-08-18T05:05:04.052Z,6.15
2022-08-18T05:07:31.380Z,5.72
2022-08-18T05:09:58.101Z,6.35
2022-08-18T05:12:26.975Z,6.28
2022-08-18T05:14:54.282Z,6.00
2022-08-18T05:17:20.923Z,5.97
2022-08-18T05:19:47.638Z,5.93
2022-08-18T05:22:19.610Z,6.32
2022-08-18T05:24:58.087Z,5.60
2022-08-18T05:27:24.583Z,5.50
2022-08-18T05:29:53.569Z,5.55
2022-08-18T05:32:41.200Z,5.60
2022-08-18T05:35:23.954Z,4.85
2022-08-18T05:38:02.492Z,5.00
2022-08-18T05:40:31.874Z,4.43
2022-08-18T05:43:00.115Z,4.82
2022-08-18T05:45:27.293Z,5.40
2022-08-18T05:48:02.356Z,5.35
2022-08-18T05:50:32.476Z,5.00
2022-08-18T05:53:14.081Z,4.55
2022-08-18T05:56:12.677Z,4.95
2022-08-18T05:58:44.401Z,5.05
2022-08-18T06:01:16.997Z,4.90
2022-08-18T06:03:52.004Z,5.43
2022-08-18T06:06:24.079Z,5.28
2022-08-18T06:09:01.533Z,5.15
2022-08-18T06:11:28.258Z,5.47
2022-08-18T06:13:59.369Z,5.10
2022-08-18T06:16:51.112Z,5.55
2022-08-18T06:19:34.241Z,4.68
2022-08-18T06:22:58.414Z,5.33
2022-08-18T06:25:55.304Z,5.07
2022-08-18T06:28:26.913Z,4.90
2022-08-18T06:31:16.378Z,5.15
2022-08-18T06:33:54.524Z,4.50
2022-08-18T06:36:46.220Z,4.72
2022-08-18T06:39:26.790Z,4.25
2022-08-18T06:41:53.818Z,4.38
2022-08-18T06:44:23.271Z,4.30
2022-08-18T06:47:04.639Z,4.45
2022-08-18T06:49:39.878Z,3.97
2022-08-18T06:52:22.786Z,4.50
2022-08-18T06:54:51.382Z,4.35
2022-08-18T06:57:35.861Z,4.30
2022-08-18T07:00:25.787Z,3.63
2022-08-18T07:03:00.606Z,3.85
2022-08-18T07:05:32.441Z,4.05
2022-08-18T07:08:36.770Z,3.72
2022-08-18T07:11:34.116Z,3.78
2022-08-18T07:14:21.404Z,3.97
2022-08-18T07:16:58.923Z,3.63
2022-08-18T07:19:30.453Z,3.67
2022-08-18T07:22:18.032Z,3.70
2022-08-18T07:24:49.561Z,3.90
2022-08-18T07:27:18.857Z,3.92
2022-08-18T07:30:00.483Z,4.07
2022-08-18T07:32:37.543Z,4.38
2022-08-18T07:35:09.521Z,3.92
2022-08-18T07:37:56.603Z,3.95
2022-08-18T07:40:27.515Z,4.03
2022-08-18T07:43:03.937Z,3.90
2022-08-18T07:45:37.910Z,3.67
2022-08-18T07:48:37.206Z,3.65
2022-08-18T07:51:44.235Z,3.90
2022-08-18T07:54:45.015Z,3.30
2022-08-18T07:57:31.408Z,3.85
2022-08-18T08:00:20.569Z,3.60
2022-08-18T08:03:17.865Z,3.83
2022-08-18T08:06:02.744Z,3.15
2022-08-18T08:08:50.388Z,3.40
2022-08-18T08:11:45.137Z,3.20
2022-08-18T08:14:25.671Z,3.50
2022-08-18T08:17:17.283Z,3.80
2022-08-18T08:20:02.494Z,3.45
2022-08-18T08:22:58.185Z,3.40
2022-08-18T08:25:56.233Z,3.25
2022-08-18T08:28:52.467Z,3.50
2022-08-18T08:31:55.587Z,3.50
2022-08-18T08:34:31.567Z,3.80
2022-08-18T08:37:04.628Z,3.40
2022-08-18T08:39:46.985Z,3.75
2022-08-18T08:42:33.665Z,3.40
2022-08-18T08:45:10.638Z,3.30
2022-08-18T08:47:52.754Z,3.20
2022-08-18T08:50:24.757Z,3.50
2022-08-18T08:53:02.599Z,3.25
2022-08-18T08:55:41.705Z,3.42
2022-08-18T08:58:08.197Z,3.20
2022-08-18T09:00:36.703Z,3.55
2022-08-18T09:03:30.284Z,3.20
2022-08-18T09:06:00.206Z,3.17
2022-08-18T09:08:39.277Z,3.00
2022-08-18T09:11:28.321Z,3.20
2022-08-18T09:14:00.205Z,3.30
2022-08-18T09:16:35.726Z,3.50
2022-08-18T09:19:40.615Z,3.55
2022-08-18T09:22:15.549Z,3.30
2022-08-18T09:24:51.054Z,3.17
2022-08-18T09:27:30.392Z,3.63
2022-08-18T09:30:02.209Z,3.53
2022-08-18T09:32:28.800Z,3.40
2022-08-18T09:35:10.519Z,3.20
2022-08-18T09:38:27.719Z,3.35
2022-08-18T09:41:16.862Z,3.70
2022-08-18T09:44:21.569Z,3.35
2022-08-18T09:46:56.025Z,3.33
2022-08-18T09:49:26.772Z,3.20
2022-08-18T09:52:24.332Z,3.03
2022-08-18T09:55:05.447Z,3.30
2022-08-18T09:57:42.130Z,3.25
2022-08-18T10:00:12.396Z,3.47
2022-08-18T10:02:40.218Z,3.30
2022-08-18T10:05:15.916Z,3.33
2022-08-18T10:07:47.647Z,3.25
2022-08-18T10:11:01.326Z,3.45
2022-08-18T10:13:33.264Z,3.08
2022-08-18T10:16:17.466Z,2.97
2022-08-18T10:18:58.138Z,3.30
2022-08-18T10:21:31.467Z,3.45
2022-08-18T10:26:54.933Z,3.40
2022-08-18T10:29:28.154Z,3.60
2022-08-18T10:37:31.256Z,3.70
2022-08-18T10:40:05.443Z,3.42
2022-08-18T10:42:33.732Z,3.60
2022-08-18T10:45:11.106Z,3.72
2022-08-18T10:47:42.549Z,3.92
2022-08-18T10:50:22.921Z,3.80
2022-08-18T10:53:39.410Z,3.63
2022-08-18T10:56:12.336Z,3.80
2022-08-18T10:58:44.404Z,4.28
2022-08-18T11:01:17.992Z,3.75
2022-08-18T11:04:13.839Z,3.38
2022-08-18T11:06:47.107Z,3.78
2022-08-18T11:09:25.647Z,3.47
2022-08-18T11:15:00.980Z,3.30
2022-08-18T11:17:54.069Z,2.90
2022-08-18T11:22:57.140Z,3.00
2022-08-18T11:25:39.906Z,3.20
2022-08-18T11:28:18.443Z,3.33
2022-08-18T11:30:52.602Z,3.25
2022-08-18T11:33:22.808Z,3.20
2022-08-18T11:35:59.288Z,3.22
2022-08-18T11:38:31.766Z,3.42
2022-08-18T11:41:25.709Z,2.80
2022-08-18T11:44:20.067Z,2.97
2022-08-18T11:46:51.793Z,2.80
2022-08-18T11:49:30.037Z,3.07
2022-08-18T11:52:19.861Z,3.05
2022-08-18T11:55:16.925Z,2.92
2022-08-18T11:57:59.495Z,2.80
2022-08-18T12:00:43.165Z,3.20
2022-08-18T12:03:19.435Z,3.20
2022-08-18T12:05:56.572Z,3.60
2022-08-18T12:09:02.941Z,3.40
2022-08-18T12:11:48.801Z,3.60
2022-08-18T12:14:31.819Z,4.07
2022-08-18T12:17:01.913Z,3.60
2022-08-18T12:19:31.081Z,3.78
2022-08-18T12:22:00.385Z,3.75
2022-08-18T12:27:23.563Z,3.40
2022-08-18T12:29:52.842Z,4.05
2022-08-18T12:32:46.488Z,3.47
2022-08-18T12:35:11.594Z,3.85
2022-08-18T12:38:11.251Z,3.90
2022-08-18T12:40:31.167Z,3.58
2022-08-18T12:42:57.824Z,3.88
2022-08-18T12:45:26.029Z,4.05
2022-08-18T12:47:56.201Z,3.90
2022-08-18T12:53:11.226Z,3.70
2022-08-18T13:01:23.604Z,4.03
2022-08-18T13:04:12.797Z,3.70
2022-08-18T13:07:00.030Z,3.75
2022-08-18T13:09:34.939Z,3.05
2022-08-18T13:12:16.697Z,4.00
2022-08-18T13:14:43.810Z,3.72
2022-08-18T13:17:30.034Z,4.28
2022-08-18T13:19:59.479Z,3.80
2022-08-18T13:22:32.919Z,4.05
2022-08-18T13:25:07.262Z,3.95
2022-08-18T13:27:35.724Z,4.07
2022-08-18T13:30:29.157Z,4.13
2022-08-18T13:32:59.061Z,4.03
2022-08-18T13:35:30.058Z,3.90
2022-08-18T13:38:14.178Z,4.07
2022-08-18T13:43:17.498Z,3.92
2022-08-18T13:45:48.070Z,3.90
2022-08-18T13:48:23.682Z,4.13
2022-08-18T13:50:52.357Z,3.97
2022-08-18T13:53:20.620Z,3.90
2022-08-18T13:55:48.477Z,4.00
2022-08-18T13:58:20.911Z,4.15
2022-08-18T14:00:53.769Z,3.70
2022-08-18T14:03:42.758Z,3.97
2022-08-18T14:06:13.762Z,3.80
2022-08-18T14:08:40.612Z,3.83
2022-08-18T14:11:10.610Z,3.78
2022-08-18T14:13:43.662Z,3.50
2022-08-18T14:19:09.751Z,3.50
2022-08-18T14:22:03.154Z,3.55
2022-08-18T14:24:49.506Z,3.40
2022-08-18T14:27:20.345Z,3.67
2022-08-18T14:29:52.039Z,3.47
2022-08-18T14:32:29.029Z,3.25
2022-08-18T14:35:31.929Z,3.70
2022-08-18T14:37:48.526Z,3.65
2022-08-18T14:40:16.172Z,3.33
2022-08-18T14:42:54.864Z,3.78
2022-08-18T14:45:31.383Z,3.45
2022-08-18T14:48:07.556Z,3.70
2022-08-18T14:50:38.518Z,3.80
2022-08-18T14:53:06.207Z,3.80
2022-08-18T14:55:35.108Z,3.95
2022-08-18T14:58:07.301Z,4.05
2022-08-18T15:00:35.338Z,3.53
2022-08-18T15:03:19.728Z,3.53
2022-08-18T15:05:46.689Z,4.28
2022-08-18T15:08:15.888Z,3.70
2022-08-18T15:10:42.377Z,3.80
2022-08-18T15:13:10.353Z,3.90
2022-08-18T15:15:50.891Z,3.50
2022-08-18T15:18:22.284Z,3.55
2022-08-18T15:21:10.500Z,3.40
2022-08-18T15:24:15.052Z,3.55
2022-08-18T15:26:47.908Z,4.15
2022-08-18T15:29:18.905Z,3.33
2022-08-18T15:31:50.661Z,3.17
2022-08-18T15:34:20.779Z,3.25
2022-08-18T15:36:47.736Z,3.72
2022-08-18T15:39:17.162Z,3.47
2022-08-18T15:41:49.350Z,3.60
2022-08-18T15:44:20.820Z,3.75
2022-08-18T15:46:53.313Z,3.33
2022-08-18T15:49:21.759Z,3.50
2022-08-18T15:51:49.782Z,3.88
2022-08-18T15:54:16.620Z,3.45
2022-08-18T15:56:46.350Z,3.80
2022-08-18T15:59:34.057Z,3.63
2022-08-18T16:02:11.549Z,3.78
2022-08-18T16:04:41.028Z,3.78
2022-08-18T16:07:07.801Z,3.90
2022-08-18T16:09:36.852Z,3.95
2022-08-18T16:12:03.799Z,3.97
2022-08-18T16:14:30.342Z,3.72
2022-08-18T16:16:56.903Z,3.83
2022-08-18T16:19:25.603Z,3.70
2022-08-18T16:21:55.006Z,3.53
2022-08-18T16:24:21.495Z,3.90
2022-08-18T16:26:47.978Z,3.80
2022-08-18T16:29:14.477Z,3.95
2022-08-18T16:31:41.502Z,3.58
2022-08-18T16:34:08.131Z,3.90
2022-08-18T16:36:37.037Z,3.72
2022-08-18T16:39:03.632Z,3.88
2022-08-18T16:41:31.898Z,4.13
2022-08-18T16:43:58.426Z,4.05
2022-08-18T16:46:27.868Z,3.72
2022-08-18T16:48:57.119Z,3.95
2022-08-18T16:51:26.404Z,4.13
2022-08-18T16:53:53.457Z,3.90
2022-08-18T16:56:28.163Z,3.90
2022-08-18T16:59:14.248Z,4.40
2022-08-18T17:02:00.223Z,4.05
2022-08-18T17:04:29.079Z,4.28
2022-08-18T17:06:59.026Z,4.18
2022-08-18T17:09:26.629Z,4.25
2022-08-18T17:11:55.828Z,3.65
2022-08-18T17:14:25.530Z,4.00
2022-08-18T17:16:56.714Z,3.85
2022-08-18T17:19:25.599Z,3.88
2022-08-18T17:21:52.522Z,3.50
2022-08-18T17:24:31.812Z,4.20
2022-08-18T17:27:26.191Z,4.32
2022-08-18T17:29:53.342Z,3.92
2022-08-18T17:32:28.001Z,4.05
2022-08-18T17:35:01.750Z,4.70
2022-08-18T17:37:30.341Z,4.32
2022-08-18T17:40:04.053Z,4.40
2022-08-18T17:42:31.988Z,4.25
2022-08-18T17:45:06.125Z,4.45
2022-08-18T17:47:40.867Z,4.80
2022-08-18T17:50:39.967Z,4.30
2022-08-18T17:53:06.910Z,3.70
2022-08-18T17:55:42.848Z,4.20
2022-08-18T17:58:20.408Z,4.00
2022-08-18T18:00:47.009Z,4.10
2022-08-18T18:03:13.617Z,4.13
2022-08-18T18:05:47.103Z,4.07
2022-08-18T18:13:34.304Z,4.23
2022-08-18T18:16:26.825Z,4.50
2022-08-18T18:18:59.871Z,4.15
2022-08-18T18:22:01.000Z,4.22
2022-08-18T18:24:23.988Z,4.32
2022-08-18T18:26:52.173Z,4.75
2022-08-18T18:29:29.116Z,3.88
2022-08-18T18:32:06.994Z,3.80
2022-08-18T18:34:43.292Z,4.38
2022-08-18T18:37:29.007Z,4.18
2022-08-18T18:40:04.480Z,3.92
2022-08-18T18:42:34.296Z,4.45
2022-08-18T18:45:04.034Z,3.97
2022-08-18T18:47:39.348Z,4.05
2022-08-18T18:50:53.018Z,4.25
2022-08-18T18:53:54.659Z,4.18
2022-08-18T18:56:49.476Z,4.05
2022-08-18T18:59:41.058Z,3.90
2022-08-18T19:02:45.451Z,4.32
2022-08-18T19:08:19.068Z,3.97
2022-08-18T19:10:53.495Z,4.50
2022-08-18T19:13:32.602Z,4.15
2022-08-18T19:16:28.535Z,4.20
2022-08-18T19:19:36.891Z,4.88
2022-08-18T19:22:18.599Z,5.45
2022-08-18T19:24:54.851Z,4.72
2022-08-18T19:27:28.556Z,5.15
2022-08-18T19:30:01.661Z,5.10
2022-08-18T19:32:36.910Z,5.75
2022-08-18T19:35:12.461Z,6.40
2022-08-18T19:38:05.496Z,6.40
2022-08-18T19:40:48.269Z,6.03
2022-08-18T19:43:47.245Z,6.00
2022-08-18T19:46:36.229Z,6.22
2022-08-18T19:49:29.004Z,6.78
2022-08-18T19:52:02.395Z,6.55
2022-08-18T19:54:40.013Z,6.28
2022-08-18T19:57:28.476Z,6.65
2022-08-18T20:00:04.922Z,6.28
2022-08-18T20:03:10.134Z,6.38
2022-08-18T20:06:34.631Z,6.35
2022-08-18T20:09:31.519Z,6.43
2022-08-18T20:12:02.161Z,6.15
2022-08-18T20:14:35.632Z,6.28
2022-08-18T20:17:22.585Z,6.60
2022-08-18T20:19:55.031Z,6.00
2022-08-18T20:22:24.372Z,6.20
2022-08-18T20:25:05.817Z,7.07
2022-08-18T20:27:42.401Z,6.50
2022-08-18T20:30:24.207Z,6.85
2022-08-18T20:33:15.210Z,7.63
2022-08-18T20:35:46.859Z,7.13
2022-08-18T20:38:26.110Z,6.53
2022-08-18T20:40:54.083Z,7.03
2022-08-18T20:43:29.554Z,7.10
2022-08-18T20:46:35.778Z,7.70
2022-08-18T20:49:23.959Z,8.02
2022-08-18T20:52:04.005Z,8.07
2022-08-18T20:54:57.115Z,8.00
2022-08-18T20:57:25.725Z,7.30
2022-08-18T21:00:03.893Z,8.02
2022-08-18T21:02:40.592Z,7.78
2022-08-18T21:05:10.380Z,7.68
2022-08-18T21:08:02.692Z,8.23
2022-08-18T21:10:32.651Z,7.50
2022-08-18T21:13:04.829Z,8.10
2022-08-18T21:15:38.307Z,7.70
2022-08-18T21:18:28.393Z,7.50
2022-08-18T21:20:58.827Z,7.35
2022-08-18T21:23:35.755Z,7.40
2022-08-18T21:26:11.215Z,6.93
2022-08-18T21:28:41.050Z,6.57
2022-08-18T21:31:41.544Z,6.18
2022-08-18T21:34:11.751Z,4.72
2022-08-18T21:36:48.632Z,5.20
2022-08-18T21:39:19.376Z,4.72
2022-08-18T21:41:54.322Z,4.68
2022-08-18T21:44:24.311Z,4.50
2022-08-18T21:47:02.340Z,4.38
2022-08-18T21:49:28.804Z,4.55
2022-08-18T21:51:55.291Z,4.10
2022-08-18T21:54:29.191Z,4.35
2022-08-18T21:57:37.876Z,4.70
2022-08-18T22:00:23.703Z,4.15
2022-08-18T22:02:52.254Z,4.50
2022-08-18T22:05:28.412Z,4.90
2022-08-18T22:07:55.255Z,4.47
2022-08-18T22:10:47.943Z,4.40
2022-08-18T22:13:47.014Z,4.15
2022-08-18T22:16:27.184Z,4.55
2022-08-18T22:19:18.614Z,4.30
2022-08-18T22:21:49.861Z,3.92
2022-08-18T22:24:22.756Z,4.20
2022-08-18T22:27:13.267Z,4.30
2022-08-18T22:29:53.974Z,3.97
2022-08-18T22:32:24.269Z,4.18
2022-08-18T22:34:50.986Z,4.00
2022-08-18T22:37:22.023Z,3.70
2022-08-18T22:39:56.582Z,4.07
2022-08-18T22:42:25.916Z,4.13
2022-08-18T22:45:01.492Z,3.85
2022-08-18T22:47:33.305Z,4.03
2022-08-18T22:50:10.852Z,4.13
2022-08-18T22:52:41.167Z,4.50
2022-08-18T22:55:10.607Z,4.30
2022-08-18T22:57:40.559Z,4.40
2022-08-18T23:00:14.419Z,4.47
2022-08-18T23:02:41.909Z,4.05
2022-08-18T23:05:08.989Z,4.22
2022-08-18T23:07:35.765Z,4.70
2022-08-18T23:10:02.688Z,4.53
2022-08-18T23:12:37.148Z,4.50
2022-08-18T23:15:14.497Z,4.20
2022-08-18T23:17:43.452Z,4.63
2022-08-18T23:20:18.235Z,4.10
2022-08-18T23:22:48.462Z,4.10
2022-08-18T23:25:15.997Z,3.92
2022-08-18T23:27:42.898Z,4.32
2022-08-18T23:30:10.635Z,4.35
2022-08-18T23:32:37.112Z,3.85
2022-08-18T23:35:03.986Z,4.45
2022-08-18T23:37:31.671Z,4.78
2022-08-18T23:39:58.670Z,5.00
2022-08-18T23:42:26.232Z,4.72
2022-08-18T23:44:52.743Z,4.85
2022-08-18T23:47:20.621Z,4.75
2022-08-18T23:49:47.163Z,4.80
2022-08-18T23:52:13.866Z,5.05
2022-08-18T23:54:40.409Z,6.25
2022-08-18T23:57:09.287Z,6.55
2022-08-18T23:59:35.752Z,6.70
